createdAt,value
2018-12-22T00:01:40.757Z,24.13
2018-12-22T00:04:43.964Z,22.50
2018-12-22T00:07:47.109Z,21.07
2018-12-22T00:10:50.230Z,20.43
2018-12-22T00:13:53.404Z,20.27
2018-12-22T00:16:56.662Z,19.80
2018-12-22T00:19:59.934Z,18.33
2018-12-22T00:23:03.094Z,17.57
2018-12-22T00:26:06.179Z,17.30
2018-12-22T00:29:09.399Z,16.77
2018-12-22T00:32:12.663Z,15.43
2018-12-22T00:35:15.767Z,14.30
2018-12-22T00:38:18.999Z,15.33
2018-12-22T00:41:22.300Z,13.93
2018-12-22T00:44:25.477Z,14.03
2018-12-22T00:47:28.716Z,12.77
2018-12-22T00:50:31.985Z,12.27
2018-12-22T00:53:35.074Z,11.50
2018-12-22T00:56:38.148Z,12.00
2018-12-22T00:59:41.222Z,10.50
2018-12-22T01:02:44.422Z,9.63
2018-12-22T01:05:47.641Z,9.67
2018-12-22T01:08:50.802Z,9.77
2018-12-22T01:11:54.042Z,8.80
2018-12-22T01:14:57.250Z,8.93
2018-12-22T01:18:00.341Z,8.57
2018-12-22T01:21:03.478Z,8.43
2018-12-22T01:24:06.563Z,8.37
2018-12-22T01:27:09.675Z,8.07
2018-12-22T01:30:12.917Z,8.17
2018-12-22T01:33:16.081Z,7.20
2018-12-22T01:36:19.254Z,7.67
2018-12-22T01:39:22.429Z,7.17
2018-12-22T01:42:26.729Z,6.90
2018-12-22T01:45:29.992Z,6.77
2018-12-22T01:48:33.111Z,6.43
2018-12-22T01:51:36.253Z,5.90
2018-12-22T01:54:39.422Z,5.80
2018-12-22T01:57:42.551Z,4.97
2018-12-22T02:00:45.756Z,6.47
2018-12-22T02:03:48.862Z,5.57
2018-12-22T02:06:52.045Z,5.47
2018-12-22T02:09:55.106Z,5.77
2018-12-22T02:12:58.243Z,5.37
2018-12-22T02:16:01.390Z,4.80
2018-12-22T02:19:04.631Z,4.90
2018-12-22T02:22:07.806Z,4.43
2018-12-22T02:25:10.983Z,4.67
2018-12-22T02:28:14.081Z,4.30
2018-12-22T02:31:17.324Z,3.97
2018-12-22T02:34:20.446Z,3.80
2018-12-22T02:37:23.539Z,4.40
2018-12-22T02:40:26.617Z,3.80
2018-12-22T02:43:29.867Z,3.57
2018-12-22T02:46:33.046Z,3.80
2018-12-22T02:49:36.160Z,3.60
2018-12-22T02:52:39.247Z,3.27
2018-12-22T02:55:42.424Z,3.10
2018-12-22T02:58:45.605Z,3.50
2018-12-22T03:01:48.682Z,3.23
2018-12-22T03:04:51.827Z,3.83
2018-12-22T03:07:54.915Z,3.00
2018-12-22T03:10:57.974Z,2.70
2018-12-22T03:14:01.357Z,2.80
2018-12-22T03:17:04.506Z,3.10
2018-12-22T03:20:07.779Z,2.83
2018-12-22T03:23:10.890Z,2.63
2018-12-22T03:26:13.978Z,2.33
2018-12-22T03:29:17.190Z,2.20
2018-12-22T03:32:20.327Z,2.43
2018-12-22T03:35:23.653Z,2.67
2018-12-22T03:38:26.771Z,2.50
2018-12-22T03:41:29.971Z,2.77
2018-12-22T03:44:33.163Z,2.87
2018-12-22T03:47:36.490Z,2.50
2018-12-22T03:50:39.717Z,2.30
2018-12-22T03:53:42.827Z,2.70
2018-12-22T03:56:45.942Z,1.90
2018-12-22T03:59:49.066Z,2.53
2018-12-22T04:02:52.173Z,2.47
2018-12-22T04:05:55.532Z,2.40
2018-12-22T04:08:58.725Z,2.10
2018-12-22T04:12:01.925Z,2.00
2018-12-22T04:15:05.178Z,1.73
2018-12-22T04:18:08.384Z,1.80
2018-12-22T04:21:11.580Z,1.70
2018-12-22T04:24:14.781Z,1.70
2018-12-22T04:27:17.908Z,1.70
2018-12-22T04:30:21.134Z,1.83
2018-12-22T04:33:24.226Z,1.67
2018-12-22T04:36:27.319Z,1.40
2018-12-22T04:39:30.496Z,1.40
2018-12-22T04:42:33.696Z,1.83
2018-12-22T04:45:36.869Z,1.77
2018-12-22T04:48:40.106Z,1.80
2018-12-22T04:51:43.250Z,1.63
2018-12-22T04:54:46.455Z,1.60
2018-12-22T04:57:49.569Z,1.40
2018-12-22T05:00:52.654Z,1.60
2018-12-22T05:03:55.906Z,2.00
2018-12-22T05:06:59.070Z,1.70
2018-12-22T05:10:02.224Z,1.80
2018-12-22T05:13:05.346Z,1.80
2018-12-22T05:16:08.469Z,1.83
2018-12-22T05:19:11.577Z,1.80
2018-12-22T05:22:14.703Z,1.50
2018-12-22T05:25:17.930Z,1.67
2018-12-22T05:28:21.094Z,1.60
2018-12-22T05:31:24.172Z,1.40
2018-12-22T05:34:27.291Z,1.50
2018-12-22T05:37:30.433Z,1.50
2018-12-22T05:40:33.575Z,1.33
2018-12-22T05:43:36.806Z,1.87
2018-12-22T05:46:39.876Z,1.30
2018-12-22T05:49:43.079Z,1.43
2018-12-22T05:52:46.155Z,1.20
2018-12-22T05:55:49.330Z,1.30
2018-12-22T05:58:52.500Z,1.40
2018-12-22T06:01:55.615Z,1.40
2018-12-22T06:04:58.828Z,1.10
2018-12-22T06:08:01.896Z,1.03
2018-12-22T06:11:05.059Z,1.30
2018-12-22T06:14:08.215Z,1.00
2018-12-22T06:17:11.365Z,1.10
2018-12-22T06:20:14.747Z,1.20
2018-12-22T06:23:17.918Z,1.20
2018-12-22T06:26:21.037Z,0.97
2018-12-22T06:29:24.159Z,0.90
2018-12-22T06:32:27.251Z,0.90
2018-12-22T06:35:30.491Z,1.17
2018-12-22T06:38:33.572Z,1.07
2018-12-22T06:41:36.712Z,0.93
2018-12-22T06:44:40.568Z,1.00
2018-12-22T06:47:43.807Z,1.10
2018-12-22T06:50:46.958Z,1.57
2018-12-22T06:53:50.133Z,0.87
2018-12-22T06:56:53.507Z,0.87
2018-12-22T06:59:56.663Z,1.10
2018-12-22T07:03:01.215Z,0.97
2018-12-22T07:06:04.472Z,1.20
2018-12-22T07:09:08.252Z,1.30
2018-12-22T07:12:12.554Z,1.00
2018-12-22T07:15:15.879Z,1.10
2018-12-22T07:18:19.014Z,0.90
2018-12-22T07:21:22.242Z,0.93
2018-12-22T07:24:25.334Z,0.90
2018-12-22T07:27:28.507Z,0.80
2018-12-22T07:30:31.628Z,0.90
2018-12-22T07:33:34.772Z,18.90
2018-12-22T07:36:37.871Z,27.90
2018-12-22T07:39:41.025Z,17.57
2018-12-22T07:42:44.214Z,13.50
2018-12-22T07:45:47.370Z,12.30
2018-12-22T07:48:50.555Z,9.63
2018-12-22T07:51:53.951Z,9.20
2018-12-22T07:54:57.149Z,8.53
2018-12-22T07:58:00.347Z,9.90
2018-12-22T08:01:03.547Z,16.60
2018-12-22T08:04:06.806Z,12.90
2018-12-22T08:07:09.903Z,12.37
2018-12-22T08:10:13.162Z,10.20
2018-12-22T08:13:16.322Z,9.30
2018-12-22T08:16:19.638Z,8.73
2018-12-22T08:19:22.845Z,8.83
2018-12-22T08:22:26.050Z,7.67
2018-12-22T08:25:29.199Z,7.50
2018-12-22T08:28:32.284Z,6.50
2018-12-22T08:31:35.446Z,6.00
2018-12-22T08:34:39.358Z,5.20
2018-12-22T08:37:42.439Z,4.77
2018-12-22T08:40:45.548Z,4.63
2018-12-22T08:43:48.625Z,4.70
2018-12-22T08:46:51.722Z,5.07
2018-12-22T08:49:54.970Z,4.10
2018-12-22T08:52:58.147Z,4.33
2018-12-22T08:56:01.506Z,4.27
2018-12-22T08:59:04.686Z,4.47
2018-12-22T09:02:08.010Z,4.00
2018-12-22T09:05:11.241Z,3.77
2018-12-22T09:08:14.420Z,3.90
2018-12-22T09:11:17.796Z,4.00
2018-12-22T09:14:21.098Z,3.63
2018-12-22T09:17:24.188Z,3.60
2018-12-22T09:20:27.294Z,3.10
2018-12-22T09:23:30.542Z,3.20
2018-12-22T09:26:33.614Z,3.43
2018-12-22T09:29:36.841Z,3.10
2018-12-22T09:32:39.975Z,2.93
2018-12-22T09:35:43.190Z,2.70
2018-12-22T09:38:46.364Z,2.57
2018-12-22T09:41:49.507Z,2.80
2018-12-22T09:44:52.879Z,2.23
2018-12-22T09:47:55.958Z,2.30
2018-12-22T09:50:59.085Z,2.13
2018-12-22T09:54:02.252Z,2.10
2018-12-22T09:57:05.487Z,2.20
2018-12-22T10:00:10.982Z,2.10
2018-12-22T10:03:14.188Z,1.80
2018-12-22T10:06:18.611Z,1.93
2018-12-22T10:09:21.941Z,1.80
2018-12-22T10:12:25.133Z,1.83
2018-12-22T10:15:28.261Z,1.83
2018-12-22T10:18:31.458Z,1.60
2018-12-22T10:21:34.542Z,1.60
2018-12-22T10:24:37.755Z,1.50
2018-12-22T10:27:40.882Z,1.40
2018-12-22T10:30:44.099Z,1.67
2018-12-22T10:33:47.881Z,1.20
2018-12-22T10:36:51.522Z,1.50
2018-12-22T10:39:55.667Z,1.53
2018-12-22T10:42:58.898Z,1.30
2018-12-22T10:46:02.233Z,1.40
2018-12-22T10:49:05.495Z,1.33
2018-12-22T10:52:08.961Z,1.30
2018-12-22T10:55:12.229Z,1.40
2018-12-22T10:58:16.074Z,1.20
2018-12-22T11:01:26.158Z,1.30
2018-12-22T11:04:24.488Z,1.47
2018-12-22T11:07:27.784Z,1.23
2018-12-22T11:10:31.127Z,1.40
2018-12-22T11:13:34.418Z,1.37
2018-12-22T11:16:37.514Z,1.40
2018-12-22T11:19:41.207Z,3.00
2018-12-22T11:22:44.456Z,3.40
2018-12-22T11:25:47.606Z,3.80
2018-12-22T11:28:50.793Z,2.50
2018-12-22T11:31:53.991Z,3.10
2018-12-22T11:34:57.102Z,3.00
2018-12-22T11:38:00.221Z,2.77
2018-12-22T11:41:03.430Z,2.53
2018-12-22T11:44:06.636Z,2.60
2018-12-22T11:47:23.838Z,2.40
2018-12-22T11:50:27.487Z,2.33
2018-12-22T11:53:30.696Z,2.27
2018-12-22T11:56:33.862Z,2.50
2018-12-22T11:59:36.953Z,2.20
2018-12-22T12:02:40.141Z,2.07
2018-12-22T12:05:43.337Z,2.03
2018-12-22T12:08:46.441Z,1.67
2018-12-22T12:11:49.591Z,1.87
2018-12-22T12:14:52.802Z,1.80
2018-12-22T12:20:06.283Z,1.50
2018-12-22T12:23:09.431Z,1.63
2018-12-22T12:26:12.575Z,1.90
2018-12-22T12:29:15.686Z,1.53
2018-12-22T12:32:18.926Z,2.00
2018-12-22T12:35:22.042Z,1.90
2018-12-22T12:38:25.230Z,1.63
2018-12-22T12:41:28.322Z,1.70
2018-12-22T12:44:31.600Z,1.70
2018-12-22T12:47:35.534Z,1.80
2018-12-22T12:50:39.567Z,1.80
2018-12-22T12:53:42.791Z,1.50
2018-12-22T12:56:50.031Z,1.50
2018-12-22T12:59:53.142Z,1.40
2018-12-22T13:02:56.392Z,1.40
2018-12-22T13:05:59.687Z,1.50
2018-12-22T13:09:02.884Z,1.40
2018-12-22T13:12:11.982Z,1.37
2018-12-22T13:15:15.176Z,1.50
2018-12-22T13:18:18.391Z,1.43
2018-12-22T13:21:21.509Z,1.50
2018-12-22T13:24:24.706Z,1.40
2018-12-22T13:27:27.926Z,1.33
2018-12-22T13:30:31.210Z,1.20
2018-12-22T13:33:34.860Z,1.30
2018-12-22T13:36:38.131Z,1.30
2018-12-22T13:39:41.239Z,1.20
2018-12-22T13:42:44.309Z,1.40
2018-12-22T13:45:47.478Z,1.60
2018-12-22T13:48:50.875Z,1.20
2018-12-22T13:51:54.153Z,1.20
2018-12-22T13:54:57.290Z,1.10
2018-12-22T13:58:00.377Z,1.30
2018-12-22T14:01:06.932Z,1.30
2018-12-22T14:04:10.125Z,1.20
2018-12-22T14:07:13.426Z,1.23
2018-12-22T14:10:17.017Z,1.20
2018-12-22T14:13:22.337Z,1.37
2018-12-22T14:16:35.151Z,1.37
2018-12-22T14:19:40.833Z,1.40
2018-12-22T14:22:45.080Z,1.40
2018-12-22T14:25:48.717Z,1.33
2018-12-22T14:28:51.855Z,1.30
2018-12-22T14:31:55.129Z,1.57
2018-12-22T14:35:02.707Z,1.63
2018-12-22T14:38:05.799Z,1.30
2018-12-22T14:41:08.988Z,1.47
2018-12-22T14:44:12.243Z,1.43
2018-12-22T14:47:15.478Z,1.40
2018-12-22T14:50:18.767Z,1.30
2018-12-22T14:53:21.959Z,1.43
2018-12-22T14:56:31.996Z,1.37
2018-12-22T14:59:35.926Z,1.50
2018-12-22T15:02:39.207Z,1.70
2018-12-22T15:05:42.451Z,1.63
2018-12-22T15:08:45.722Z,1.50
2018-12-22T15:11:49.025Z,1.70
2018-12-22T15:14:52.304Z,1.73
2018-12-22T15:17:55.579Z,1.50
2018-12-22T15:20:59.342Z,1.40
2018-12-22T15:24:02.815Z,1.60
2018-12-22T15:27:06.123Z,1.60
2018-12-22T15:30:11.743Z,1.80
2018-12-22T15:33:14.889Z,1.70
2018-12-22T15:36:18.194Z,1.63
2018-12-22T15:39:21.443Z,1.80
2018-12-22T15:42:24.722Z,1.60
2018-12-22T15:45:27.965Z,1.50
2018-12-22T15:48:31.160Z,1.70
2018-12-22T15:51:34.347Z,1.80
2018-12-22T15:54:37.514Z,1.70
2018-12-22T15:57:40.857Z,1.80
2018-12-22T16:00:44.142Z,1.60
2018-12-22T16:03:47.434Z,1.70
2018-12-22T16:06:50.917Z,2.10
2018-12-22T16:09:54.520Z,1.67
2018-12-22T16:12:57.707Z,2.00
2018-12-22T16:16:01.003Z,1.93
2018-12-22T16:19:04.212Z,1.93
2018-12-22T16:22:07.482Z,2.10
2018-12-22T16:25:11.525Z,2.00
2018-12-22T16:28:24.522Z,2.00
2018-12-22T16:31:27.740Z,2.40
2018-12-22T16:34:30.886Z,1.97
2018-12-22T16:37:34.054Z,2.10
2018-12-22T16:40:37.234Z,2.07
2018-12-22T16:43:41.279Z,2.20
2018-12-22T16:46:44.507Z,2.00
2018-12-22T16:49:47.727Z,2.50
2018-12-22T16:52:50.819Z,2.20
2018-12-22T16:55:54.068Z,2.10
2018-12-22T16:58:59.410Z,2.57
2018-12-22T17:02:44.404Z,2.27
2018-12-22T17:05:48.003Z,2.53
2018-12-22T17:08:51.320Z,2.50
2018-12-22T17:11:54.502Z,2.53
2018-12-22T17:14:57.642Z,2.30
2018-12-22T17:18:01.188Z,2.40
2018-12-22T17:21:18.132Z,2.50
2018-12-22T17:24:31.461Z,2.40
2018-12-22T17:27:35.696Z,2.40
2018-12-22T17:30:38.890Z,2.40
2018-12-22T17:33:42.255Z,2.87
2018-12-22T17:36:45.438Z,2.53
2018-12-22T17:39:53.571Z,2.63
2018-12-22T17:42:54.989Z,2.80
2018-12-22T17:45:58.186Z,2.57
2018-12-22T17:49:01.846Z,2.70
2018-12-22T17:52:05.404Z,2.80
2018-12-22T17:55:10.234Z,2.63
2018-12-22T17:58:13.508Z,2.47
2018-12-22T18:01:16.763Z,2.53
2018-12-22T18:04:20.003Z,2.57
2018-12-22T18:07:23.147Z,2.40
2018-12-22T18:10:26.992Z,2.80
2018-12-22T18:13:30.160Z,2.70
2018-12-22T18:16:33.695Z,2.50
2018-12-22T18:19:36.906Z,2.80
2018-12-22T18:22:40.105Z,2.87
2018-12-22T18:25:43.179Z,3.03
2018-12-22T18:28:46.336Z,3.40
2018-12-22T18:31:49.710Z,3.33
2018-12-22T18:34:52.860Z,3.33
2018-12-22T18:37:56.086Z,3.17
2018-12-22T18:40:59.253Z,3.03
2018-12-22T18:44:02.703Z,2.93
2018-12-22T18:47:06.965Z,3.07
2018-12-22T18:50:14.012Z,3.03
2018-12-22T18:53:17.203Z,2.90
2018-12-22T18:56:20.491Z,2.70
2018-12-22T18:59:24.797Z,2.53
2018-12-22T19:02:28.841Z,2.80
2018-12-22T19:05:32.115Z,2.90
2018-12-22T19:08:35.857Z,2.80
2018-12-22T19:11:39.327Z,2.80
2018-12-22T19:14:53.694Z,2.97
2018-12-22T19:17:57.520Z,2.90
2018-12-22T19:21:00.894Z,2.90
2018-12-22T19:24:04.102Z,3.03
2018-12-22T19:27:07.890Z,3.20
2018-12-22T19:30:11.127Z,2.80
2018-12-22T19:33:14.962Z,2.60
2018-12-22T19:36:18.390Z,2.80
2018-12-22T19:39:21.727Z,2.70
2018-12-22T19:42:25.150Z,3.47
2018-12-22T19:45:28.855Z,24.83
2018-12-22T19:48:32.613Z,24.43
2018-12-22T19:51:36.171Z,19.80
2018-12-22T19:54:39.455Z,19.93
2018-12-22T19:57:42.763Z,16.10
2018-12-22T20:00:45.940Z,15.03
2018-12-22T20:03:49.910Z,13.23
2018-12-22T20:06:53.423Z,13.13
2018-12-22T20:09:56.635Z,11.23
2018-12-22T20:12:59.827Z,9.80
2018-12-22T20:16:08.856Z,9.80
2018-12-22T20:19:08.131Z,8.97
2018-12-22T20:22:11.773Z,8.23
2018-12-22T20:25:16.139Z,7.73
2018-12-22T20:28:20.331Z,7.03
2018-12-22T20:31:23.706Z,6.17
2018-12-22T20:34:27.165Z,6.37
2018-12-22T20:37:30.663Z,6.20
2018-12-22T20:40:33.752Z,5.10
2018-12-22T20:43:37.379Z,5.03
2018-12-22T20:46:41.351Z,4.40
2018-12-22T20:49:44.528Z,3.10
2018-12-22T20:52:47.779Z,2.90
2018-12-22T20:55:50.828Z,2.70
2018-12-22T20:58:54.082Z,3.00
2018-12-22T21:01:57.363Z,2.63
2018-12-22T21:05:00.680Z,2.90
2018-12-22T21:08:03.915Z,2.90
2018-12-22T21:11:07.240Z,2.60
2018-12-22T21:14:10.531Z,2.20
2018-12-22T21:17:13.716Z,2.50
2018-12-22T21:20:16.884Z,2.40
2018-12-22T21:23:20.082Z,2.70
2018-12-22T21:26:23.368Z,2.80
2018-12-22T21:29:26.627Z,23.60
2018-12-22T21:32:29.842Z,78.93
2018-12-22T21:35:33.139Z,29.23
2018-12-22T21:38:36.449Z,19.10
2018-12-22T21:41:39.672Z,14.93
2018-12-22T21:44:42.890Z,9.90
2018-12-22T21:47:46.309Z,7.30
2018-12-22T21:50:49.697Z,7.03
2018-12-22T21:53:53.034Z,6.47
2018-12-22T21:56:56.234Z,5.90
2018-12-22T21:59:59.406Z,5.73
2018-12-22T22:03:02.611Z,5.77
2018-12-22T22:06:05.759Z,5.90
2018-12-22T22:09:08.894Z,5.87
2018-12-22T22:12:12.166Z,6.07
2018-12-22T22:15:15.241Z,6.43
2018-12-22T22:18:18.604Z,5.70
2018-12-22T22:21:21.839Z,5.30
2018-12-22T22:24:25.081Z,5.17
2018-12-22T22:27:28.279Z,4.20
2018-12-22T22:30:31.431Z,3.90
2018-12-22T22:33:34.545Z,3.43
2018-12-22T22:36:37.664Z,3.20
2018-12-22T22:39:40.796Z,3.13
2018-12-22T22:42:43.965Z,3.00
2018-12-22T22:45:47.123Z,2.60
2018-12-22T22:48:50.737Z,2.77
2018-12-22T22:51:53.821Z,2.53
2018-12-22T22:54:56.982Z,2.40
2018-12-22T22:58:00.202Z,2.60
2018-12-22T23:01:03.363Z,2.80
2018-12-22T23:04:06.489Z,3.30
2018-12-22T23:07:09.663Z,3.40
2018-12-22T23:10:12.839Z,14.17
2018-12-22T23:13:16.070Z,48.27
2018-12-22T23:16:19.156Z,40.30
2018-12-22T23:19:22.337Z,36.33
2018-12-22T23:22:25.433Z,32.53
2018-12-22T23:25:28.790Z,29.13
2018-12-22T23:28:31.897Z,25.27
2018-12-22T23:31:35.154Z,24.30
2018-12-22T23:34:38.935Z,22.87
2018-12-22T23:37:42.050Z,21.83
2018-12-22T23:40:45.260Z,21.30
2018-12-22T23:43:48.347Z,21.43
2018-12-22T23:46:51.494Z,19.53
2018-12-22T23:49:54.604Z,19.40
2018-12-22T23:52:57.715Z,18.13
2018-12-22T23:56:00.993Z,17.43
2018-12-22T23:59:04.278Z,16.70
